createdAt,value
2019-04-27T00:00:05.139Z,14.55
2019-04-27T00:02:39.745Z,14.59
2019-04-27T00:05:14.306Z,14.57
2019-04-27T00:08:03.006Z,14.56
2019-04-27T00:10:48.705Z,14.53
2019-04-27T00:13:20.359Z,14.44
2019-04-27T00:15:54.579Z,14.43
2019-04-27T00:18:27.690Z,14.43
2019-04-27T00:21:03.730Z,14.34
2019-04-27T00:23:35.489Z,14.32
2019-04-27T00:26:07.339Z,14.27
2019-04-27T00:28:39.344Z,14.24
2019-04-27T00:31:11.085Z,14.19
2019-04-27T00:33:43.444Z,14.19
2019-04-27T00:36:16.830Z,14.15
2019-04-27T00:38:53.490Z,14.11
2019-04-27T00:41:26.087Z,14.11
2019-04-27T00:43:57.844Z,14.08
2019-04-27T00:46:29.593Z,14.05
2019-04-27T00:49:01.471Z,14.03
2019-04-27T00:51:33.341Z,14.07
2019-04-27T00:54:05.160Z,14.04
2019-04-27T00:56:56.701Z,14.02
2019-04-27T00:59:29.887Z,14.02
2019-04-27T01:02:15.629Z,14.00
2019-04-27T01:04:49.176Z,13.99
2019-04-27T01:07:20.938Z,13.91
2019-04-27T01:09:52.834Z,13.92
2019-04-27T01:12:25.174Z,13.88
2019-04-27T01:14:56.749Z,13.86
2019-04-27T01:17:28.897Z,13.90
2019-04-27T01:20:00.538Z,13.85
2019-04-27T01:22:32.397Z,13.84
2019-04-27T01:25:05.802Z,13.79
2019-04-27T01:27:55.170Z,13.79
2019-04-27T01:30:34.831Z,13.78
2019-04-27T01:33:06.432Z,13.77
2019-04-27T01:35:39.155Z,13.74
2019-04-27T01:38:10.814Z,13.71
2019-04-27T01:40:42.568Z,13.65
2019-04-27T01:43:14.413Z,13.58
2019-04-27T01:45:46.086Z,13.61
2019-04-27T01:48:23.642Z,13.57
2019-04-27T01:50:51.015Z,13.56
2019-04-27T01:53:22.708Z,13.51
2019-04-27T01:55:54.549Z,13.40
2019-04-27T01:58:26.107Z,13.35
2019-04-27T02:01:05.794Z,13.25
2019-04-27T02:03:45.062Z,13.13
2019-04-27T02:06:16.951Z,13.05
2019-04-27T02:08:49.315Z,12.96
2019-04-27T02:11:21.065Z,12.88
2019-04-27T02:13:52.759Z,12.84
2019-04-27T02:16:24.464Z,12.79
2019-04-27T02:18:56.019Z,12.70
2019-04-27T02:21:29.474Z,12.61
2019-04-27T02:24:00.974Z,12.56
2019-04-27T02:26:32.928Z,12.56
2019-04-27T02:29:22.498Z,12.56
2019-04-27T02:32:12.083Z,12.52
2019-04-27T02:35:00.425Z,12.46
2019-04-27T02:37:32.286Z,12.47
2019-04-27T02:40:05.800Z,12.48
2019-04-27T02:42:39.742Z,12.51
2019-04-27T02:45:12.433Z,12.50
2019-04-27T02:47:44.030Z,12.52
2019-04-27T02:50:15.686Z,12.52
2019-04-27T02:52:50.053Z,12.53
2019-04-27T02:55:21.267Z,12.49
2019-04-27T02:57:52.828Z,12.44
2019-04-27T03:00:24.655Z,12.50
2019-04-27T03:02:59.791Z,12.41
2019-04-27T03:05:31.244Z,12.41
2019-04-27T03:08:03.010Z,12.41
2019-04-27T03:10:34.969Z,12.41
2019-04-27T03:13:15.216Z,12.37
2019-04-27T03:16:00.900Z,12.40
2019-04-27T03:18:37.163Z,12.43
2019-04-27T03:21:19.840Z,12.48
2019-04-27T03:23:50.409Z,12.49
2019-04-27T03:26:23.909Z,12.53
2019-04-27T03:28:55.484Z,12.59
2019-04-27T03:31:27.421Z,12.62
2019-04-27T03:34:04.822Z,12.60
2019-04-27T03:36:32.479Z,12.61
2019-04-27T03:39:05.164Z,12.65
2019-04-27T03:41:36.807Z,12.66
2019-04-27T03:44:09.408Z,12.72
2019-04-27T03:46:41.070Z,12.72
2019-04-27T03:49:28.182Z,12.74
2019-04-27T03:51:50.089Z,12.79
2019-04-27T03:54:23.499Z,12.74
2019-04-27T03:56:59.123Z,12.74
2019-04-27T03:59:50.622Z,12.80
2019-04-27T04:02:21.301Z,12.86
2019-04-27T04:04:54.617Z,12.89
2019-04-27T04:07:26.337Z,12.93
2019-04-27T04:10:00.249Z,12.95
2019-04-27T04:12:33.232Z,12.93
2019-04-27T04:15:11.246Z,13.06
2019-04-27T04:17:42.817Z,13.15
2019-04-27T04:20:14.519Z,13.21
2019-04-27T04:22:46.007Z,13.23
2019-04-27T04:25:19.886Z,13.28
2019-04-27T04:27:50.944Z,13.34
2019-04-27T04:30:22.896Z,13.49
2019-04-27T04:32:54.501Z,13.56
2019-04-27T04:35:26.392Z,13.68
2019-04-27T04:38:00.392Z,13.80
2019-04-27T04:40:33.531Z,13.95
2019-04-27T04:43:10.832Z,14.02
2019-04-27T04:45:44.235Z,14.10
2019-04-27T04:48:19.856Z,14.21
2019-04-27T04:50:50.679Z,14.32
2019-04-27T04:53:22.332Z,14.37
2019-04-27T04:55:53.933Z,14.43
2019-04-27T04:58:25.548Z,14.46
2019-04-27T05:00:59.692Z,14.47
2019-04-27T05:03:30.593Z,14.57
2019-04-27T05:06:02.269Z,14.64
2019-04-27T05:08:34.121Z,14.57
2019-04-27T05:11:05.680Z,14.75
2019-04-27T05:13:39.283Z,14.82
2019-04-27T05:16:10.608Z,14.84
2019-04-27T05:18:43.287Z,15.00
2019-04-27T05:21:22.945Z,15.00
2019-04-27T05:23:55.813Z,15.10
2019-04-27T05:26:29.368Z,15.10
2019-04-27T05:29:00.680Z,15.14
2019-04-27T05:31:32.439Z,15.15
2019-04-27T05:34:06.797Z,15.31
2019-04-27T05:36:41.793Z,15.40
2019-04-27T05:39:13.267Z,15.62
2019-04-27T05:41:44.154Z,15.76
2019-04-27T05:44:19.044Z,15.92
2019-04-27T05:47:01.081Z,16.06
2019-04-27T05:49:44.098Z,16.14
2019-04-27T05:52:29.756Z,16.31
2019-04-27T05:55:01.655Z,16.49
2019-04-27T05:57:33.633Z,16.67
2019-04-27T06:00:09.154Z,16.71
2019-04-27T06:02:41.256Z,16.76
2019-04-27T06:05:13.078Z,17.01
2019-04-27T06:07:44.742Z,17.15
2019-04-27T06:10:16.859Z,17.29
2019-04-27T06:12:49.480Z,17.38
2019-04-27T06:15:20.974Z,17.46
2019-04-27T06:17:52.948Z,17.56
2019-04-27T06:20:24.546Z,17.77
2019-04-27T06:22:56.231Z,17.99
2019-04-27T06:25:30.523Z,18.05
2019-04-27T06:28:01.271Z,18.06
2019-04-27T06:30:32.923Z,18.07
2019-04-27T06:33:04.687Z,18.14
2019-04-27T06:35:36.419Z,18.37
2019-04-27T06:38:10.131Z,18.41
2019-04-27T06:40:41.805Z,18.44
2019-04-27T06:43:13.712Z,18.60
2019-04-27T06:45:45.422Z,18.63
2019-04-27T06:48:17.291Z,18.80
2019-04-27T06:51:02.719Z,18.80
2019-04-27T06:53:23.779Z,19.04
2019-04-27T06:55:55.227Z,19.20
2019-04-27T06:58:27.062Z,19.24
2019-04-27T07:00:59.538Z,19.46
2019-04-27T07:03:31.292Z,19.48
2019-04-27T07:06:03.037Z,19.41
2019-04-27T07:08:35.513Z,19.49
2019-04-27T07:11:08.954Z,19.54
2019-04-27T07:13:40.463Z,19.73
2019-04-27T07:16:12.250Z,19.80
2019-04-27T07:18:44.053Z,19.90
2019-04-27T07:21:19.033Z,19.79
2019-04-27T07:23:59.405Z,19.75
2019-04-27T07:26:31.349Z,19.78
2019-04-27T07:29:02.986Z,19.78
2019-04-27T07:31:34.645Z,19.85
2019-04-27T07:34:07.140Z,20.03
2019-04-27T07:36:39.297Z,20.16
2019-04-27T07:39:11.613Z,20.30
2019-04-27T07:41:43.258Z,20.43
2019-04-27T07:44:16.535Z,20.56
2019-04-27T07:46:49.892Z,20.67
2019-04-27T07:49:21.470Z,20.88
2019-04-27T07:51:53.228Z,21.13
2019-04-27T07:54:25.066Z,21.38
2019-04-27T07:56:56.520Z,21.67
2019-04-27T07:59:29.491Z,21.70
2019-04-27T08:02:01.060Z,21.95
2019-04-27T08:04:32.830Z,22.09
2019-04-27T08:07:04.503Z,22.06
2019-04-27T08:09:36.022Z,22.14
2019-04-27T08:12:08.008Z,22.20
2019-04-27T08:14:39.639Z,22.25
2019-04-27T08:17:11.305Z,22.56
2019-04-27T08:19:42.972Z,22.75
2019-04-27T08:22:16.501Z,22.62
2019-04-27T08:24:49.585Z,22.50
2019-04-27T08:27:25.537Z,22.45
2019-04-27T08:29:58.856Z,22.50
2019-04-27T08:32:41.596Z,22.71
2019-04-27T08:35:14.254Z,22.94
2019-04-27T08:37:46.265Z,23.22
2019-04-27T08:40:19.272Z,23.47
2019-04-27T08:42:51.399Z,23.56
2019-04-27T08:45:22.900Z,23.44
2019-04-27T08:47:54.319Z,23.40
2019-04-27T08:50:26.157Z,23.42
2019-04-27T08:52:57.647Z,23.57
2019-04-27T08:55:29.526Z,23.66
2019-04-27T08:58:01.350Z,23.65
2019-04-27T09:00:33.090Z,23.89
2019-04-27T09:03:04.742Z,23.96
2019-04-27T09:05:36.608Z,24.20
2019-04-27T09:08:19.094Z,24.53
2019-04-27T09:11:01.619Z,24.83
2019-04-27T09:13:43.924Z,24.75
2019-04-27T09:16:20.299Z,24.81
2019-04-27T09:18:53.789Z,24.88
2019-04-27T09:21:25.456Z,24.92
2019-04-27T09:23:57.013Z,24.69
2019-04-27T09:26:28.857Z,24.53
2019-04-27T09:29:02.251Z,24.55
2019-04-27T09:31:34.149Z,24.21
2019-04-27T09:34:05.868Z,24.00
2019-04-27T09:36:37.634Z,24.14
2019-04-27T09:39:11.540Z,24.32
2019-04-27T09:41:43.332Z,24.11
2019-04-27T09:44:16.057Z,24.13
2019-04-27T09:46:47.726Z,24.05
2019-04-27T09:49:20.811Z,24.16
2019-04-27T09:51:52.513Z,24.24
2019-04-27T09:54:24.333Z,24.61
2019-04-27T09:56:56.153Z,24.55
2019-04-27T09:59:28.101Z,24.38
2019-04-27T10:01:59.923Z,24.32
2019-04-27T10:04:32.088Z,24.30
2019-04-27T10:07:03.745Z,24.57
2019-04-27T10:09:36.841Z,24.65
2019-04-27T10:12:08.624Z,24.63
2019-04-27T10:14:40.232Z,24.60
2019-04-27T10:17:12.269Z,24.82
2019-04-27T10:19:43.957Z,24.83
2019-04-27T10:22:16.147Z,24.83
2019-04-27T10:24:47.780Z,24.74
2019-04-27T10:27:19.589Z,24.67
2019-04-27T10:29:51.111Z,24.51
2019-04-27T10:32:22.948Z,24.67
2019-04-27T10:34:54.496Z,24.57
2019-04-27T10:37:26.479Z,24.58
2019-04-27T10:39:58.318Z,24.71
2019-04-27T10:42:30.139Z,24.68
2019-04-27T10:45:01.957Z,24.56
2019-04-27T10:47:36.007Z,24.53
2019-04-27T10:50:07.898Z,24.71
2019-04-27T10:52:52.604Z,24.78
2019-04-27T10:55:12.896Z,24.84
2019-04-27T10:57:44.443Z,24.84
2019-04-27T11:00:17.614Z,24.83
2019-04-27T11:02:49.259Z,24.55
2019-04-27T11:05:31.190Z,24.55
2019-04-27T11:08:02.650Z,24.37
2019-04-27T11:10:36.063Z,24.27
2019-04-27T11:13:07.655Z,24.06
2019-04-27T11:15:39.615Z,23.87
2019-04-27T11:18:11.529Z,23.72
2019-04-27T11:20:43.130Z,23.74
2019-04-27T11:23:16.409Z,23.82
2019-04-27T11:25:48.080Z,23.94
2019-04-27T11:28:19.864Z,23.98
2019-04-27T11:30:51.758Z,23.92
2019-04-27T11:33:23.582Z,23.82
2019-04-27T11:35:56.878Z,23.77
2019-04-27T11:38:28.388Z,23.70
2019-04-27T11:41:00.094Z,23.52
2019-04-27T11:43:31.521Z,23.54
2019-04-27T11:46:03.063Z,23.63
2019-04-27T11:48:36.154Z,23.67
2019-04-27T11:51:07.730Z,23.55
2019-04-27T11:53:39.478Z,23.63
2019-04-27T11:56:11.219Z,23.81
2019-04-27T11:58:42.924Z,23.87
2019-04-27T12:01:15.982Z,23.60
2019-04-27T12:03:47.618Z,23.65
2019-04-27T12:06:19.477Z,23.78
2019-04-27T12:08:51.445Z,23.81
2019-04-27T12:11:23.213Z,23.74
2019-04-27T12:13:56.152Z,23.78
2019-04-27T12:16:27.841Z,23.81
2019-04-27T12:19:01.237Z,23.80
2019-04-27T12:21:33.135Z,23.71
2019-04-27T12:24:05.098Z,23.59
2019-04-27T12:26:41.231Z,23.49
2019-04-27T12:29:16.159Z,23.57
2019-04-27T12:31:49.091Z,23.66
2019-04-27T12:34:20.871Z,23.73
2019-04-27T12:36:53.381Z,23.70
2019-04-27T12:39:26.742Z,23.59
2019-04-27T12:41:58.226Z,23.58
2019-04-27T12:44:29.968Z,23.63
2019-04-27T12:47:02.617Z,23.59
2019-04-27T12:49:36.129Z,23.58
2019-04-27T12:52:07.814Z,23.51
2019-04-27T12:54:46.941Z,23.57
2019-04-27T12:57:20.979Z,23.58
2019-04-27T13:00:00.020Z,23.60
2019-04-27T13:02:33.413Z,23.57
2019-04-27T13:05:07.160Z,23.63
2019-04-27T13:07:38.725Z,23.71
2019-04-27T13:10:15.909Z,23.74
2019-04-27T13:12:47.636Z,23.79
2019-04-27T13:15:20.450Z,23.79
2019-04-27T13:17:52.100Z,23.83
2019-04-27T13:20:25.632Z,23.93
2019-04-27T13:22:57.156Z,23.93
2019-04-27T13:25:28.944Z,23.96
2019-04-27T13:28:01.194Z,23.98
2019-04-27T13:30:32.881Z,23.93
2019-04-27T13:33:04.538Z,23.93
2019-04-27T13:35:36.388Z,23.91
2019-04-27T13:38:08.333Z,23.65
2019-04-27T13:40:41.607Z,23.57
2019-04-27T13:43:20.941Z,23.43
2019-04-27T13:46:00.584Z,23.41
2019-04-27T13:48:34.105Z,23.48
2019-04-27T13:51:07.575Z,23.42
2019-04-27T13:53:41.001Z,23.39
2019-04-27T13:56:17.402Z,23.32
2019-04-27T13:58:48.689Z,23.28
2019-04-27T14:01:20.239Z,23.20
2019-04-27T14:03:52.103Z,23.05
2019-04-27T14:06:25.246Z,22.98
2019-04-27T14:08:58.750Z,22.91
2019-04-27T14:11:30.238Z,22.80
2019-04-27T14:14:02.013Z,22.72
2019-04-27T14:16:33.891Z,22.62
2019-04-27T14:19:05.631Z,22.53
2019-04-27T14:21:38.842Z,22.48
2019-04-27T14:24:10.697Z,22.45
2019-04-27T14:26:42.354Z,22.47
2019-04-27T14:29:14.329Z,22.50
2019-04-27T14:31:47.877Z,22.55
2019-04-27T14:34:19.708Z,22.50
2019-04-27T14:36:51.622Z,22.49
2019-04-27T14:39:23.552Z,22.55
2019-04-27T14:41:55.382Z,22.49
2019-04-27T14:44:29.294Z,22.46
2019-04-27T14:47:01.005Z,22.47
2019-04-27T14:49:32.956Z,22.46
2019-04-27T14:52:04.632Z,22.48
2019-04-27T14:54:46.032Z,22.47
2019-04-27T14:57:09.566Z,22.42
2019-04-27T14:59:41.311Z,22.41
2019-04-27T15:02:13.276Z,22.31
2019-04-27T15:04:45.560Z,22.41
2019-04-27T15:07:18.058Z,22.37
2019-04-27T15:09:54.433Z,22.36
2019-04-27T15:12:30.382Z,22.39
2019-04-27T15:14:59.443Z,22.34
2019-04-27T15:17:31.297Z,22.28
2019-04-27T15:20:08.222Z,22.23
2019-04-27T15:22:40.507Z,22.18
2019-04-27T15:25:15.171Z,22.14
2019-04-27T15:27:47.542Z,22.15
2019-04-27T15:30:22.285Z,22.17
2019-04-27T15:32:55.477Z,22.11
2019-04-27T15:35:40.634Z,22.08
2019-04-27T15:38:15.467Z,22.07
2019-04-27T15:41:08.683Z,21.96
2019-04-27T15:43:43.156Z,21.90
2019-04-27T15:46:15.323Z,21.86
2019-04-27T15:48:48.714Z,21.81
2019-04-27T15:51:21.251Z,21.77
2019-04-27T15:53:54.040Z,21.75
2019-04-27T15:56:25.565Z,21.73
2019-04-27T15:58:59.894Z,21.76
2019-04-27T16:01:35.771Z,21.71
2019-04-27T16:04:07.617Z,21.67
2019-04-27T16:06:38.474Z,21.68
2019-04-27T16:09:16.127Z,21.69
2019-04-27T16:11:50.104Z,21.66
2019-04-27T16:14:19.217Z,21.62
2019-04-27T16:16:50.995Z,21.59
2019-04-27T16:19:22.756Z,21.50
2019-04-27T16:21:54.822Z,21.48
2019-04-27T16:24:26.512Z,21.45
2019-04-27T16:27:00.021Z,21.39
2019-04-27T16:29:32.013Z,21.33
2019-04-27T16:32:09.634Z,21.31
2019-04-27T16:34:41.032Z,21.35
2019-04-27T16:37:13.971Z,21.35
2019-04-27T16:39:47.208Z,21.31
2019-04-27T16:42:18.778Z,21.31
2019-04-27T16:44:53.157Z,21.26
2019-04-27T16:47:24.776Z,21.23
2019-04-27T16:49:56.536Z,21.10
2019-04-27T16:52:29.827Z,21.10
2019-04-27T16:55:01.364Z,21.05
2019-04-27T16:57:37.461Z,21.00
2019-04-27T17:00:09.749Z,20.96
2019-04-27T17:03:35.786Z,21.18
2019-04-27T17:06:07.846Z,20.97
2019-04-27T17:08:39.364Z,20.92
2019-04-27T17:11:13.756Z,20.85
2019-04-27T17:13:58.988Z,20.76
2019-04-27T17:16:39.041Z,20.76
2019-04-27T17:19:12.500Z,20.71
2019-04-27T17:21:45.292Z,20.68
2019-04-27T17:24:45.307Z,20.68
2019-04-27T17:27:16.249Z,20.66
2019-04-27T17:29:50.006Z,20.61
2019-04-27T17:32:25.603Z,20.59
2019-04-27T17:35:02.011Z,20.57
2019-04-27T17:37:33.711Z,20.53
2019-04-27T17:40:05.873Z,20.55
2019-04-27T17:42:37.636Z,20.53
2019-04-27T17:45:10.731Z,20.49
2019-04-27T17:47:42.556Z,20.46
2019-04-27T17:50:18.417Z,20.40
2019-04-27T17:52:54.774Z,20.36
2019-04-27T17:55:24.203Z,20.40
2019-04-27T17:58:00.587Z,20.40
2019-04-27T18:00:41.023Z,20.43
2019-04-27T18:03:05.907Z,20.47
2019-04-27T18:05:43.801Z,20.46
2019-04-27T18:08:20.006Z,20.44
2019-04-27T18:10:53.666Z,20.40
2019-04-27T18:13:25.642Z,20.45
2019-04-27T18:15:56.679Z,20.41
2019-04-27T18:18:30.455Z,20.42
2019-04-27T18:21:02.003Z,20.47
2019-04-27T18:23:35.323Z,20.49
2019-04-27T18:26:08.459Z,20.47
2019-04-27T18:28:41.607Z,20.42
2019-04-27T18:31:17.878Z,20.38
2019-04-27T18:33:51.980Z,20.39
2019-04-27T18:36:23.448Z,20.36
2019-04-27T18:38:55.370Z,20.28
2019-04-27T18:41:29.008Z,20.23
2019-04-27T18:44:02.277Z,20.22
2019-04-27T18:46:35.263Z,20.20
2019-04-27T18:49:10.494Z,20.18
2019-04-27T18:52:10.773Z,20.10
2019-04-27T18:54:42.645Z,20.02
2019-04-27T18:57:17.909Z,19.97
2019-04-27T18:59:50.690Z,19.89
2019-04-27T19:02:23.291Z,19.96
2019-04-27T19:04:58.768Z,19.94
2019-04-27T19:07:30.983Z,19.89
2019-04-27T19:10:02.775Z,19.87
2019-04-27T19:12:35.130Z,19.81
2019-04-27T19:15:08.384Z,19.79
2019-04-27T19:17:40.124Z,19.76
2019-04-27T19:20:12.203Z,19.73
2019-04-27T19:22:44.725Z,19.65
2019-04-27T19:25:21.276Z,19.62
2019-04-27T19:28:11.152Z,19.61
2019-04-27T19:30:47.328Z,19.51
2019-04-27T19:33:19.159Z,19.47
2019-04-27T19:35:51.055Z,19.42
2019-04-27T19:38:22.932Z,19.43
2019-04-27T19:40:54.784Z,19.38
2019-04-27T19:43:28.353Z,19.34
2019-04-27T19:45:59.922Z,19.26
2019-04-27T19:48:31.563Z,19.23
2019-04-27T19:51:03.529Z,19.29
2019-04-27T19:53:35.384Z,19.14
2019-04-27T19:56:07.269Z,19.14
2019-04-27T19:58:40.477Z,19.04
2019-04-27T20:01:14.702Z,18.97
2019-04-27T20:03:47.849Z,19.04
2019-04-27T20:06:19.403Z,18.98
2019-04-27T20:08:52.690Z,18.99
2019-04-27T20:11:24.451Z,18.97
2019-04-27T20:13:56.306Z,18.90
2019-04-27T20:16:28.394Z,18.90
2019-04-27T20:19:01.509Z,18.86
2019-04-27T20:21:34.170Z,18.84
2019-04-27T20:24:05.713Z,18.91
2019-04-27T20:26:37.447Z,18.86
2019-04-27T20:29:09.212Z,18.88
2019-04-27T20:31:41.209Z,18.90
2019-04-27T20:34:12.746Z,18.88
2019-04-27T20:36:44.555Z,18.87
2019-04-27T20:39:16.593Z,18.80
2019-04-27T20:41:48.429Z,18.76
2019-04-27T20:44:21.159Z,18.80
2019-04-27T20:46:52.868Z,18.82
2019-04-27T20:49:24.460Z,18.76
2019-04-27T20:51:58.064Z,18.74
2019-04-27T20:54:30.647Z,18.76
2019-04-27T20:57:02.668Z,18.79
2019-04-27T20:59:34.392Z,18.80
2019-04-27T21:02:24.211Z,18.78
2019-04-27T21:04:57.470Z,18.75
2019-04-27T21:07:39.978Z,18.66
2019-04-27T21:10:11.731Z,18.58
2019-04-27T21:12:45.254Z,18.58
2019-04-27T21:15:16.807Z,18.52
2019-04-27T21:17:48.450Z,18.45
2019-04-27T21:20:21.909Z,18.40
2019-04-27T21:22:53.553Z,18.38
2019-04-27T21:25:26.094Z,18.31
2019-04-27T21:27:57.741Z,18.33
2019-04-27T21:30:31.238Z,18.30
2019-04-27T21:33:02.874Z,18.27
2019-04-27T21:35:35.931Z,18.24
2019-04-27T21:38:07.704Z,18.19
2019-04-27T21:40:40.857Z,18.22
2019-04-27T21:43:14.763Z,18.12
2019-04-27T21:45:46.277Z,18.08
2019-04-27T21:48:18.050Z,17.94
2019-04-27T21:50:51.717Z,18.05
2019-04-27T21:53:27.606Z,17.98
2019-04-27T21:56:03.561Z,17.94
2019-04-27T21:58:35.333Z,17.89
2019-04-27T22:01:18.667Z,17.85
2019-04-27T22:03:52.743Z,17.90
2019-04-27T22:06:24.190Z,17.81
2019-04-27T22:08:55.655Z,17.76
2019-04-27T22:11:27.398Z,17.67
2019-04-27T22:14:01.346Z,17.62
2019-04-27T22:16:33.169Z,17.60
2019-04-27T22:19:05.370Z,17.52
2019-04-27T22:21:36.840Z,17.50
2019-04-27T22:24:18.987Z,17.53
2019-04-27T22:26:52.993Z,17.53
2019-04-27T22:29:24.684Z,17.46
2019-04-27T22:31:56.227Z,17.39
2019-04-27T22:34:27.894Z,17.38
2019-04-27T22:37:00.943Z,17.28
2019-04-27T22:39:37.014Z,17.21
2019-04-27T22:42:26.617Z,17.12
2019-04-27T22:45:01.267Z,17.09
2019-04-27T22:47:33.185Z,16.98
2019-04-27T22:50:06.888Z,16.92
2019-04-27T22:52:38.459Z,16.95
2019-04-27T22:55:11.819Z,16.95
2019-04-27T22:57:47.881Z,16.94
2019-04-27T23:00:37.758Z,16.93
2019-04-27T23:03:11.280Z,16.81
2019-04-27T23:05:43.101Z,16.85
2019-04-27T23:08:15.077Z,16.85
2019-04-27T23:10:46.938Z,16.88
2019-04-27T23:13:18.819Z,16.89
2019-04-27T23:15:52.184Z,16.83
2019-04-27T23:18:23.666Z,16.81
2019-04-27T23:20:55.502Z,16.77
2019-04-27T23:23:27.055Z,16.79
2019-04-27T23:25:58.658Z,16.76
2019-04-27T23:28:31.267Z,16.65
2019-04-27T23:31:07.652Z,16.62
2019-04-27T23:33:42.265Z,16.56
2019-04-27T23:36:13.754Z,16.56
2019-04-27T23:38:45.692Z,16.62
2019-04-27T23:41:17.519Z,16.61
2019-04-27T23:43:49.346Z,16.47
2019-04-27T23:46:21.506Z,16.40
2019-04-27T23:48:53.887Z,16.46
2019-04-27T23:51:30.660Z,16.31
2019-04-27T23:54:02.195Z,16.29
2019-04-27T23:56:33.590Z,16.26
2019-04-27T23:59:05.386Z,16.23
